Cumberland, Maryland
Current Conditions -  °F | °C
As of 7:34 AM on Friday 28 Nov 2014 (Local Time) from KCBE Reporting Station
Scattered Clouds Scattered Clouds  
Wind Chill: 32°   Ceiling: Unl
Heat Index: 32°   Visibility: 10mi
Dew Point: 19°   Wind: 0mph
Humidity: 60%   Direction: NA
Pressure: 30.32"   Gusts: NA
Location:  39.65°N, 78.76°W
Report Text: KCBE 281234Z AUTO 00000KT 10SM SCT020 SCT060 00/M07 A3032 RMK AO1
Loading
Personal Weather Stations






























Interactive Weather Map New forecast layout! Learn more

10-Day Weather Forecast

Advertisements
Track Severe Weather on mobile